createdAt,value
2018-10-11T00:00:40.098Z,15.65
2018-10-11T00:01:40.102Z,15.76
2018-10-11T00:02:40.064Z,15.76
2018-10-11T00:03:40.100Z,15.80
2018-10-11T00:04:40.040Z,15.76
2018-10-11T00:05:40.043Z,15.77
2018-10-11T00:06:40.057Z,15.90
2018-10-11T00:07:40.009Z,15.80
2018-10-11T00:08:40.002Z,15.76
2018-10-11T00:09:40.023Z,15.72
2018-10-11T00:10:40.001Z,15.77
2018-10-11T00:11:40.010Z,15.76
2018-10-11T00:12:41.795Z,15.75
2018-10-11T00:13:39.945Z,15.70
2018-10-11T00:14:39.943Z,15.72
2018-10-11T00:15:39.938Z,15.67
2018-10-11T00:16:39.950Z,15.75
2018-10-11T00:17:39.941Z,15.76
2018-10-11T00:18:39.903Z,15.79
2018-10-11T00:19:39.885Z,15.77
2018-10-11T00:20:39.872Z,15.73
2018-10-11T00:21:39.907Z,15.75
2018-10-11T00:22:39.855Z,15.73
2018-10-11T00:23:39.843Z,15.72
2018-10-11T00:24:39.859Z,15.68
2018-10-11T00:25:39.827Z,15.65
2018-10-11T00:26:39.838Z,15.59
2018-10-11T00:27:39.801Z,15.59
2018-10-11T00:28:39.790Z,15.57
2018-10-11T00:29:39.779Z,15.57
2018-10-11T00:30:39.799Z,15.59
2018-10-11T00:31:39.787Z,15.54
2018-10-11T00:32:39.752Z,15.55
2018-10-11T00:33:39.739Z,15.55
2018-10-11T00:34:39.739Z,15.54
2018-10-11T00:35:39.724Z,15.57
2018-10-11T00:36:39.734Z,15.57
2018-10-11T00:37:39.710Z,15.54
2018-10-11T00:38:39.687Z,15.62
2018-10-11T00:39:39.677Z,15.49
2018-10-11T00:40:39.661Z,15.47
2018-10-11T00:41:39.687Z,15.47
2018-10-11T00:42:39.646Z,15.44
2018-10-11T00:43:39.648Z,15.47
2018-10-11T00:44:39.623Z,15.49
2018-10-11T00:45:39.611Z,15.46
2018-10-11T00:46:39.635Z,15.43
2018-10-11T00:47:39.592Z,15.43
2018-10-11T00:48:39.578Z,15.44
2018-10-11T00:49:39.604Z,15.43
2018-10-11T00:50:39.560Z,15.43
2018-10-11T00:51:39.579Z,15.46
2018-10-11T00:52:39.544Z,15.40
2018-10-11T00:53:39.524Z,15.47
2018-10-11T00:54:39.521Z,15.43
2018-10-11T00:55:39.534Z,15.43
2018-10-11T00:56:39.527Z,15.40
2018-10-11T00:57:39.480Z,15.39
2018-10-11T00:58:39.474Z,15.43
2018-10-11T00:59:39.464Z,15.47
2018-10-11T01:00:39.449Z,15.43
2018-10-11T01:01:39.509Z,15.37
2018-10-11T01:02:39.427Z,15.40
2018-10-11T01:03:39.416Z,15.39
2018-10-11T01:04:39.407Z,15.25
2018-10-11T01:05:39.409Z,15.28
2018-10-11T01:06:39.419Z,15.36
2018-10-11T01:07:39.404Z,15.33
2018-10-11T01:08:39.374Z,15.29
2018-10-11T01:09:39.400Z,15.37
2018-10-11T01:10:39.354Z,15.33
2018-10-11T01:11:39.365Z,15.35
2018-10-11T01:12:39.329Z,15.37
2018-10-11T01:13:39.327Z,15.29
2018-10-11T01:14:39.312Z,15.35
2018-10-11T01:15:39.343Z,15.29
2018-10-11T01:16:39.314Z,15.36
2018-10-11T01:17:39.270Z,15.24
2018-10-11T01:18:39.262Z,15.27
2018-10-11T01:19:39.249Z,15.17
2018-10-11T01:20:39.237Z,15.15
2018-10-11T01:21:39.296Z,15.25
2018-10-11T01:22:39.215Z,15.21
2018-10-11T01:23:39.211Z,15.22
2018-10-11T01:24:39.202Z,15.27
2018-10-11T01:25:39.192Z,15.22
2018-10-11T01:26:39.205Z,15.31
2018-10-11T01:27:39.187Z,15.28
2018-10-11T01:28:39.153Z,15.28
2018-10-11T01:29:39.188Z,15.28
2018-10-11T01:30:39.140Z,15.24
2018-10-11T01:31:39.156Z,15.22
2018-10-11T01:32:39.114Z,15.27
2018-10-11T01:33:39.135Z,15.21
2018-10-11T01:34:39.092Z,15.15
2018-10-11T01:35:39.081Z,15.15
2018-10-11T01:36:39.120Z,15.19
2018-10-11T01:37:39.069Z,15.18
2018-10-11T01:38:39.098Z,15.19
2018-10-11T01:39:39.067Z,15.14
2018-10-11T01:40:39.031Z,15.19
2018-10-11T01:41:39.050Z,15.11
2018-10-11T01:42:39.014Z,15.09
2018-10-11T01:43:39.012Z,15.06
2018-10-11T01:44:38.997Z,15.11
2018-10-11T01:45:38.978Z,15.17
2018-10-11T01:46:39.023Z,15.19
2018-10-11T01:47:38.954Z,15.17
2018-10-11T01:48:38.943Z,15.07
2018-10-11T01:49:38.948Z,15.15
2018-10-11T01:50:38.921Z,15.11
2018-10-11T01:51:38.948Z,15.15
2018-10-11T01:52:38.898Z,15.22
2018-10-11T01:53:38.920Z,15.04
2018-10-11T01:54:38.892Z,15.04
2018-10-11T01:55:38.874Z,15.10
2018-10-11T01:56:38.921Z,15.07
2018-10-11T01:57:38.854Z,15.10
2018-10-11T01:58:38.849Z,15.04
2018-10-11T01:59:38.858Z,15.07
2018-10-11T02:00:38.818Z,15.04
2018-10-11T02:01:38.844Z,15.04
2018-10-11T02:02:38.799Z,15.03
2018-10-11T02:03:38.797Z,15.07
2018-10-11T02:04:38.773Z,15.06
2018-10-11T02:05:38.763Z,15.07
2018-10-11T02:06:38.814Z,15.04
2018-10-11T02:07:38.742Z,15.02
2018-10-11T02:08:38.746Z,14.99
2018-10-11T02:09:38.874Z,15.00
2018-10-11T02:10:38.708Z,15.02
2018-10-11T02:11:38.732Z,15.03
2018-10-11T02:12:38.723Z,15.03
2018-10-11T02:13:38.684Z,14.94
2018-10-11T02:14:38.670Z,14.97
2018-10-11T02:15:38.658Z,15.04
2018-10-11T02:16:38.680Z,14.97
2018-10-11T02:17:38.639Z,14.99
2018-10-11T02:18:38.651Z,15.09
2018-10-11T02:19:38.615Z,15.07
2018-10-11T02:20:38.608Z,15.02
2018-10-11T02:21:38.635Z,14.86
2018-10-11T02:22:38.593Z,15.00
2018-10-11T02:23:38.577Z,15.02
2018-10-11T02:24:38.599Z,14.99
2018-10-11T02:25:38.556Z,14.99
2018-10-11T02:26:38.591Z,15.07
2018-10-11T02:27:38.573Z,15.04
2018-10-11T02:28:38.527Z,15.07
2018-10-11T02:29:38.513Z,15.03
2018-10-11T02:30:38.505Z,15.06
2018-10-11T02:31:38.573Z,15.02
2018-10-11T02:32:38.486Z,15.03
2018-10-11T02:33:38.477Z,15.03
2018-10-11T02:34:38.459Z,15.03
2018-10-11T02:35:38.449Z,15.06
2018-10-11T02:36:38.465Z,15.02
2018-10-11T02:37:38.437Z,15.11
2018-10-11T02:38:38.445Z,15.17
2018-10-11T02:39:38.424Z,15.18
2018-10-11T02:40:38.403Z,15.15
2018-10-11T02:41:38.419Z,15.10
2018-10-11T02:42:38.381Z,15.11
2018-10-11T02:43:38.367Z,15.03
2018-10-11T02:44:38.379Z,15.11
2018-10-11T02:45:38.341Z,14.99
2018-10-11T02:46:38.362Z,14.96
2018-10-11T02:47:38.334Z,15.07
2018-10-11T02:48:38.315Z,15.04
2018-10-11T02:49:38.303Z,14.97
2018-10-11T02:50:38.336Z,15.07
2018-10-11T02:51:38.315Z,15.00
2018-10-11T02:52:38.269Z,14.94
2018-10-11T02:53:38.266Z,14.94
2018-10-11T02:54:38.249Z,15.02
2018-10-11T02:55:38.248Z,14.97
2018-10-11T02:56:38.277Z,15.02
2018-10-11T02:57:38.218Z,14.99
2018-10-11T02:58:38.211Z,14.97
2018-10-11T02:59:38.218Z,15.02
2018-10-11T03:00:38.183Z,15.02
2018-10-11T03:01:38.205Z,14.99
2018-10-11T03:02:38.189Z,15.03
2018-10-11T03:03:38.160Z,15.21
2018-10-11T03:04:38.147Z,15.15
2018-10-11T03:05:38.139Z,15.24
2018-10-11T03:06:38.163Z,15.24
2018-10-11T03:07:38.134Z,15.14
2018-10-11T03:08:38.102Z,15.07
2018-10-11T03:09:38.132Z,15.06
2018-10-11T03:10:38.096Z,15.07
2018-10-11T03:11:38.111Z,15.09
2018-10-11T03:12:38.061Z,15.09
2018-10-11T03:13:38.055Z,15.18
2018-10-11T03:14:38.051Z,15.17
2018-10-11T03:15:38.084Z,15.21
2018-10-11T03:16:38.059Z,15.11
2018-10-11T03:17:38.007Z,15.18
2018-10-11T03:18:37.999Z,15.14
2018-10-11T03:19:37.990Z,15.17
2018-10-11T03:20:37.980Z,15.19
2018-10-11T03:21:38.031Z,15.14
2018-10-11T03:22:37.955Z,15.06
2018-10-11T03:23:37.960Z,15.07
2018-10-11T03:24:37.950Z,15.02
2018-10-11T03:25:37.933Z,15.07
2018-10-11T03:26:37.957Z,15.04
2018-10-11T03:27:37.910Z,15.00
2018-10-11T03:28:37.898Z,14.99
2018-10-11T03:29:37.912Z,15.07
2018-10-11T03:30:37.881Z,15.02
2018-10-11T03:31:37.905Z,15.06
2018-10-11T03:32:37.855Z,14.99
2018-10-11T03:33:37.838Z,15.03
2018-10-11T03:34:37.871Z,15.04
2018-10-11T03:35:37.821Z,15.09
2018-10-11T03:36:37.850Z,15.02
2018-10-11T03:37:37.816Z,14.99
2018-10-11T03:38:37.813Z,15.02
2018-10-11T03:39:37.776Z,15.02
2018-10-11T03:40:37.771Z,15.04
2018-10-11T03:41:37.788Z,15.00
2018-10-11T03:42:37.747Z,15.04
2018-10-11T03:43:37.761Z,15.04
2018-10-11T03:44:37.727Z,15.02
2018-10-11T03:45:37.718Z,14.92
2018-10-11T03:46:37.824Z,14.96
2018-10-11T03:47:37.694Z,15.00
2018-10-11T03:48:37.683Z,15.04
2018-10-11T03:49:37.716Z,14.99
2018-10-11T03:50:37.806Z,14.91
2018-10-11T03:51:37.684Z,15.00
2018-10-11T03:52:37.639Z,14.97
2018-10-11T03:53:37.645Z,15.03
2018-10-11T03:54:37.620Z,15.06
2018-10-11T03:55:37.624Z,15.06
2018-10-11T03:56:37.656Z,15.11
2018-10-11T03:57:37.589Z,15.07
2018-10-11T03:58:37.586Z,15.06
2018-10-11T03:59:37.575Z,15.10
2018-10-11T04:00:37.566Z,15.04
2018-10-11T04:01:37.614Z,15.04
2018-10-11T04:02:37.549Z,15.04
2018-10-11T04:03:37.574Z,15.02
2018-10-11T04:04:37.528Z,14.96
2018-10-11T04:05:37.507Z,14.84
2018-10-11T04:06:37.526Z,14.86
2018-10-11T04:07:37.560Z,14.82
2018-10-11T04:08:37.503Z,14.82
2018-10-11T04:09:37.471Z,14.85
2018-10-11T04:10:37.469Z,14.88
2018-10-11T04:11:37.472Z,14.91
2018-10-11T04:12:37.431Z,15.00
2018-10-11T04:13:37.416Z,15.07
2018-10-11T04:14:37.422Z,15.02
2018-10-11T04:15:37.488Z,15.00
2018-10-11T04:16:37.469Z,15.03
2018-10-11T04:17:37.381Z,15.03
2018-10-11T04:18:37.376Z,15.09
2018-10-11T04:19:37.363Z,15.02
2018-10-11T04:20:37.349Z,15.06
2018-10-11T04:21:37.335Z,15.06
2018-10-11T04:22:37.376Z,15.11
2018-10-11T04:23:37.333Z,15.00
2018-10-11T04:24:37.300Z,14.97
2018-10-11T04:25:37.293Z,14.97
2018-10-11T04:26:37.295Z,14.97
2018-10-11T04:27:37.303Z,14.97
2018-10-11T04:28:37.282Z,14.92
2018-10-11T04:29:37.302Z,14.96
2018-10-11T04:30:37.242Z,15.02
2018-10-11T04:31:37.235Z,14.92
2018-10-11T04:32:37.266Z,14.91
2018-10-11T04:33:37.209Z,14.92
2018-10-11T04:34:37.292Z,14.97
2018-10-11T04:35:37.193Z,15.02
2018-10-11T04:36:37.186Z,14.92
2018-10-11T04:37:37.184Z,14.99
2018-10-11T04:38:37.209Z,15.02
2018-10-11T04:39:37.145Z,14.96
2018-10-11T04:40:37.139Z,15.00
2018-10-11T04:41:37.164Z,15.04
2018-10-11T04:42:37.204Z,15.07
2018-10-11T04:43:37.129Z,15.04
2018-10-11T04:44:37.112Z,14.99
2018-10-11T04:45:37.099Z,15.02
2018-10-11T04:46:37.083Z,14.99
2018-10-11T04:47:37.071Z,15.02
2018-10-11T04:48:37.106Z,14.97
2018-10-11T04:49:37.075Z,14.94
2018-10-11T04:50:37.095Z,14.89
2018-10-11T04:51:37.040Z,14.81
2018-10-11T04:52:37.007Z,14.82
2018-10-11T04:53:37.085Z,14.85
2018-10-11T04:54:37.074Z,14.79
2018-10-11T04:55:37.029Z,14.66
2018-10-11T04:56:36.965Z,14.72
2018-10-11T04:57:36.979Z,14.66
2018-10-11T04:58:36.964Z,14.68
2018-10-11T04:59:37.008Z,14.66
2018-10-11T05:00:36.986Z,14.78
2018-10-11T05:01:36.909Z,14.78
2018-10-11T05:02:36.901Z,14.81
2018-10-11T05:03:36.913Z,14.77
2018-10-11T05:04:36.938Z,14.81
2018-10-11T05:05:36.870Z,14.81
2018-10-11T05:06:36.864Z,14.81
2018-10-11T05:07:36.849Z,14.78
2018-10-11T05:08:36.835Z,14.66
2018-10-11T05:09:36.897Z,14.72
2018-10-11T05:10:36.868Z,14.69
2018-10-11T05:11:36.839Z,14.69
2018-10-11T05:12:36.846Z,14.66
2018-10-11T05:13:36.784Z,14.66
2018-10-11T05:14:36.839Z,14.69
2018-10-11T05:15:36.839Z,14.72
2018-10-11T05:16:36.768Z,14.66
2018-10-11T05:17:36.742Z,14.72
2018-10-11T05:18:36.732Z,14.70
2018-10-11T05:19:36.749Z,14.73
2018-10-11T05:20:36.765Z,14.70
2018-10-11T05:21:36.763Z,14.68
2018-10-11T05:22:36.705Z,14.68
2018-10-11T05:23:36.699Z,14.78
2018-10-11T05:24:36.671Z,14.72
2018-10-11T05:25:36.702Z,14.68
2018-10-11T05:26:36.690Z,14.69
2018-10-11T05:27:36.639Z,14.65
2018-10-11T05:28:36.646Z,14.58
2018-10-11T05:29:36.643Z,14.55
2018-10-11T05:30:36.604Z,14.62
2018-10-11T05:31:36.644Z,14.55
2018-10-11T05:32:36.591Z,14.55
2018-10-11T05:33:36.630Z,14.62
2018-10-11T05:34:36.561Z,14.53
2018-10-11T05:35:36.555Z,14.58
2018-10-11T05:36:36.569Z,14.59
2018-10-11T05:37:36.534Z,14.60
2018-10-11T05:38:36.558Z,14.62
2018-10-11T05:39:36.518Z,14.51
2018-10-11T05:40:36.580Z,14.43
2018-10-11T05:41:36.560Z,14.43
2018-10-11T05:42:36.478Z,14.41
2018-10-11T05:43:36.476Z,14.41
2018-10-11T05:44:36.606Z,14.43
2018-10-11T05:45:36.485Z,14.40
2018-10-11T05:46:36.435Z,14.36
2018-10-11T05:47:36.455Z,14.45
2018-10-11T05:48:36.440Z,14.40
2018-10-11T05:49:36.404Z,14.41
2018-10-11T05:50:36.401Z,14.48
2018-10-11T05:51:36.387Z,14.41
2018-10-11T05:52:36.401Z,14.36
2018-10-11T05:53:36.377Z,14.40
2018-10-11T05:54:36.380Z,14.29
2018-10-11T05:55:36.341Z,14.35
2018-10-11T05:56:36.346Z,14.28
2018-10-11T05:57:36.351Z,14.35
2018-10-11T05:58:36.314Z,14.29
2018-10-11T05:59:36.301Z,14.29
2018-10-11T06:00:36.311Z,14.37
2018-10-11T06:01:36.295Z,14.29
2018-10-11T06:02:36.356Z,14.40
2018-10-11T06:03:36.261Z,14.40
2018-10-11T06:04:36.246Z,14.44
2018-10-11T06:05:36.235Z,14.45
2018-10-11T06:06:36.226Z,14.44
2018-10-11T06:07:36.253Z,14.35
2018-10-11T06:08:36.210Z,14.29
2018-10-11T06:09:36.222Z,14.35
2018-10-11T06:10:36.184Z,14.35
2018-10-11T06:11:36.172Z,14.30
2018-10-11T06:12:36.163Z,14.22
2018-10-11T06:13:36.181Z,14.35
2018-10-11T06:14:36.142Z,14.29
2018-10-11T06:15:36.152Z,14.32
2018-10-11T06:16:36.149Z,14.43
2018-10-11T06:17:36.148Z,14.47
2018-10-11T06:18:36.128Z,14.44
2018-10-11T06:19:36.089Z,14.40
2018-10-11T06:20:36.082Z,14.41
2018-10-11T06:21:36.070Z,14.45
2018-10-11T06:22:36.060Z,14.47
2018-10-11T06:23:36.127Z,14.37
2018-10-11T06:24:36.066Z,14.37
2018-10-11T06:25:36.025Z,14.41
2018-10-11T06:26:36.026Z,14.45
2018-10-11T06:27:36.007Z,14.50
2018-10-11T06:28:36.031Z,14.55
2018-10-11T06:29:36.015Z,14.59
2018-10-11T06:30:36.000Z,14.59
2018-10-11T06:31:35.974Z,14.51
2018-10-11T06:32:35.959Z,14.58
2018-10-11T06:33:36.013Z,14.54
2018-10-11T06:34:35.954Z,14.53
2018-10-11T06:35:35.994Z,14.60
2018-10-11T06:36:35.952Z,14.68
2018-10-11T06:37:35.935Z,14.66
2018-10-11T06:38:35.889Z,14.69
2018-10-11T06:39:35.911Z,14.72
2018-10-11T06:40:35.873Z,14.77
2018-10-11T06:41:35.910Z,14.77
2018-10-11T06:42:35.930Z,14.69
2018-10-11T06:43:35.856Z,14.70
2018-10-11T06:44:35.874Z,14.70
2018-10-11T06:45:35.851Z,14.66
2018-10-11T06:46:35.822Z,14.81
2018-10-11T06:47:35.826Z,14.79
2018-10-11T06:48:35.810Z,14.81
2018-10-11T06:49:35.812Z,14.81
2018-10-11T06:50:35.832Z,14.82
2018-10-11T06:51:35.772Z,14.82
2018-10-11T06:52:35.758Z,14.79
2018-10-11T06:53:35.733Z,14.86
2018-10-11T06:54:35.891Z,14.84
2018-10-11T06:55:35.715Z,14.86
2018-10-11T06:56:35.700Z,14.85
2018-10-11T06:57:35.746Z,14.96
2018-10-11T06:58:35.682Z,14.99
2018-10-11T06:59:35.701Z,14.99
2018-10-11T07:00:35.657Z,15.03
2018-10-11T07:01:35.706Z,15.07
2018-10-11T07:02:35.649Z,14.99
2018-10-11T07:03:35.637Z,15.03
2018-10-11T07:04:35.663Z,15.04
2018-10-11T07:05:35.655Z,15.07
2018-10-11T07:06:35.628Z,15.07
2018-10-11T07:07:35.614Z,15.04
2018-10-11T07:08:35.573Z,15.07
2018-10-11T07:09:35.576Z,15.09
2018-10-11T07:10:35.637Z,15.09
2018-10-11T07:11:35.564Z,15.07
2018-10-11T07:12:35.559Z,15.18
2018-10-11T07:13:35.538Z,15.11
2018-10-11T07:14:35.518Z,15.11
2018-10-11T07:15:35.550Z,15.25
2018-10-11T07:16:35.531Z,15.24
2018-10-11T07:17:35.478Z,15.14
2018-10-11T07:18:35.483Z,15.27
2018-10-11T07:19:35.461Z,15.24
2018-10-11T07:20:35.529Z,15.22
2018-10-11T07:21:35.455Z,15.29
2018-10-11T07:22:35.452Z,15.36
2018-10-11T07:23:35.419Z,15.29
2018-10-11T07:24:35.437Z,15.29
2018-10-11T07:25:35.442Z,15.31
2018-10-11T07:26:35.388Z,15.27
2018-10-11T07:27:35.398Z,15.36
2018-10-11T07:28:35.366Z,15.39
2018-10-11T07:29:35.360Z,15.42
2018-10-11T07:30:35.342Z,15.46
2018-10-11T07:31:35.363Z,15.47
2018-10-11T07:32:35.390Z,15.49
2018-10-11T07:33:35.310Z,15.47
2018-10-11T07:34:35.329Z,15.52
2018-10-11T07:35:35.421Z,15.54
2018-10-11T07:36:35.311Z,15.54
2018-10-11T07:37:35.276Z,15.64
2018-10-11T07:38:35.272Z,15.65
2018-10-11T07:39:35.266Z,15.75
2018-10-11T07:40:35.355Z,15.62
2018-10-11T07:41:35.264Z,15.75
2018-10-11T07:42:35.214Z,15.76
2018-10-11T07:43:35.206Z,15.77
2018-10-11T07:44:35.197Z,15.90
2018-10-11T07:45:35.197Z,15.84
2018-10-11T07:46:35.174Z,15.84
2018-10-11T07:47:35.199Z,15.82
2018-10-11T07:48:35.152Z,15.88
2018-10-11T07:49:35.141Z,15.83
2018-10-11T07:50:35.131Z,16.00
2018-10-11T07:51:35.138Z,15.91
2018-10-11T07:52:35.168Z,15.91
2018-10-11T07:53:35.119Z,15.92
2018-10-11T07:54:35.108Z,15.98
2018-10-11T07:55:35.095Z,16.00
2018-10-11T07:56:35.070Z,16.02
2018-10-11T07:57:35.095Z,16.10
2018-10-11T07:58:35.048Z,16.09
2018-10-11T07:59:35.044Z,16.13
2018-10-11T08:00:35.029Z,16.13
2018-10-11T08:01:35.102Z,16.20
2018-10-11T08:02:35.006Z,16.23
2018-10-11T08:03:35.116Z,16.23
2018-10-11T08:04:34.983Z,16.23
2018-10-11T08:05:34.973Z,16.20
2018-10-11T08:06:34.965Z,16.24
2018-10-11T08:07:35.026Z,16.23
2018-10-11T08:08:35.033Z,16.33
2018-10-11T08:09:34.930Z,16.31
2018-10-11T08:10:35.063Z,16.35
2018-10-11T08:11:34.973Z,16.35
2018-10-11T08:12:34.904Z,16.38
2018-10-11T08:13:34.982Z,16.36
2018-10-11T08:14:34.912Z,16.47
2018-10-11T08:15:34.870Z,16.42
2018-10-11T08:16:34.966Z,16.38
2018-10-11T08:17:35.251Z,16.41
2018-10-11T08:18:34.888Z,16.51
2018-10-11T08:19:34.974Z,16.56
2018-10-11T08:20:34.900Z,16.60
2018-10-11T08:21:34.835Z,16.64
2018-10-11T08:22:34.797Z,16.76
2018-10-11T08:23:34.792Z,16.75
2018-10-11T08:24:34.887Z,16.90
2018-10-11T08:25:34.946Z,16.87
2018-10-11T08:26:34.789Z,16.89
2018-10-11T08:27:34.739Z,16.91
2018-10-11T08:28:34.732Z,16.99
2018-10-11T08:29:34.752Z,16.91
2018-10-11T08:30:34.709Z,16.93
2018-10-11T08:31:34.728Z,16.93
2018-10-11T08:32:34.968Z,16.94
2018-10-11T08:33:34.679Z,16.94
2018-10-11T08:34:34.667Z,17.02
2018-10-11T08:35:34.690Z,17.02
2018-10-11T08:36:34.651Z,16.97
2018-10-11T08:37:34.695Z,16.99
2018-10-11T08:38:34.725Z,17.11
2018-10-11T08:39:34.650Z,17.09
2018-10-11T08:40:34.634Z,17.06
2018-10-11T08:41:34.593Z,17.19
2018-10-11T08:42:34.583Z,17.15
2018-10-11T08:43:34.640Z,17.22
2018-10-11T08:44:34.564Z,17.12
2018-10-11T08:45:34.636Z,17.19
2018-10-11T08:46:34.567Z,17.24
2018-10-11T08:47:34.531Z,17.24
2018-10-11T08:48:34.526Z,17.24
2018-10-11T08:49:34.521Z,17.31
2018-10-11T08:50:34.520Z,17.33
2018-10-11T08:51:34.527Z,17.33
2018-10-11T08:52:34.509Z,17.45
2018-10-11T08:53:34.493Z,17.46
2018-10-11T08:54:34.462Z,17.51
2018-10-11T08:55:34.552Z,17.51
2018-10-11T08:56:34.508Z,17.49
2018-10-11T08:57:34.426Z,17.48
2018-10-11T08:58:34.438Z,17.49
2018-10-11T08:59:34.505Z,17.56
2018-10-11T09:00:34.418Z,17.59
2018-10-11T09:01:34.431Z,17.51
2018-10-11T09:02:34.395Z,17.63
2018-10-11T09:03:34.510Z,17.70
2018-10-11T09:04:34.375Z,17.71
2018-10-11T09:05:34.344Z,17.70
2018-10-11T09:06:34.372Z,17.76
2018-10-11T09:07:34.392Z,17.80
2018-10-11T09:08:34.315Z,17.79
2018-10-11T09:09:34.397Z,17.80
2018-10-11T09:10:38.345Z,17.87
2018-10-11T09:11:34.303Z,17.94
2018-10-11T09:12:34.379Z,17.90
2018-10-11T09:13:34.258Z,17.92
2018-10-11T09:14:34.248Z,18.01
2018-10-11T09:15:34.242Z,18.00
2018-10-11T09:16:34.228Z,18.04
2018-10-11T09:17:34.251Z,18.10
2018-10-11T09:18:34.217Z,18.10
2018-10-11T09:19:34.194Z,18.05
2018-10-11T09:20:34.185Z,18.23
2018-10-11T09:21:34.208Z,18.22
2018-10-11T09:22:34.162Z,18.34
2018-10-11T09:23:34.187Z,18.33
2018-10-11T09:24:34.168Z,18.35
2018-10-11T09:25:34.145Z,18.34
2018-10-11T09:26:34.143Z,18.38
2018-10-11T09:27:34.110Z,18.35
2018-10-11T09:28:34.129Z,18.41
2018-10-11T09:29:34.089Z,18.38
2018-10-11T09:30:34.079Z,18.45
2018-10-11T09:31:34.069Z,18.49
2018-10-11T09:32:34.076Z,18.50
2018-10-11T09:33:34.114Z,18.47
2018-10-11T09:34:34.054Z,18.50
2018-10-11T09:35:34.042Z,18.56
2018-10-11T09:36:34.094Z,18.50
2018-10-11T09:37:34.041Z,18.60
2018-10-11T09:38:33.992Z,18.71
2018-10-11T09:39:34.839Z,18.66
2018-10-11T09:40:34.013Z,18.81
2018-10-11T09:41:33.962Z,18.86
2018-10-11T09:42:33.948Z,18.88
2018-10-11T09:43:33.946Z,18.86
2018-10-11T09:44:33.963Z,18.89
2018-10-11T09:45:33.934Z,18.86
2018-10-11T09:46:33.924Z,18.84
2018-10-11T09:47:33.898Z,18.95
2018-10-11T09:48:33.890Z,18.96
2018-10-11T09:49:33.946Z,18.99
2018-10-11T09:50:33.866Z,19.08
2018-10-11T09:51:33.851Z,19.09
2018-10-11T09:52:33.889Z,19.00
2018-10-11T09:53:33.835Z,19.16
2018-10-11T09:54:33.920Z,19.14
2018-10-11T09:55:33.837Z,19.18
2018-10-11T09:56:33.801Z,19.16
2018-10-11T09:57:33.799Z,19.24
2018-10-11T09:58:33.787Z,19.31
2018-10-11T09:59:33.766Z,19.31
2018-10-11T10:00:33.787Z,19.34
2018-10-11T10:01:33.745Z,19.29
2018-10-11T10:02:33.748Z,19.31
2018-10-11T10:03:33.724Z,19.41
2018-10-11T10:04:33.728Z,19.37
2018-10-11T10:05:33.736Z,19.45
2018-10-11T10:06:33.694Z,19.49
2018-10-11T10:07:33.692Z,19.52
2018-10-11T10:08:33.674Z,19.47
2018-10-11T10:09:33.660Z,19.47
2018-10-11T10:10:33.707Z,19.47
2018-10-11T10:11:33.640Z,19.52
2018-10-11T10:12:33.631Z,19.55
2018-10-11T10:13:33.618Z,19.49
2018-10-11T10:14:33.609Z,19.58
2018-10-11T10:15:33.651Z,19.63
2018-10-11T10:16:33.950Z,19.69
2018-10-11T10:17:33.579Z,19.67
2018-10-11T10:18:33.572Z,19.62
2018-10-11T10:19:33.580Z,19.59
2018-10-11T10:20:33.544Z,19.69
2018-10-11T10:21:33.619Z,19.59
2018-10-11T10:22:33.553Z,19.56
2018-10-11T10:23:33.517Z,19.62
2018-10-11T10:24:33.847Z,19.59
2018-10-11T10:25:33.492Z,19.70
2018-10-11T10:26:33.739Z,19.69
2018-10-11T10:27:33.594Z,19.59
2018-10-11T10:28:33.508Z,19.69
2018-10-11T10:29:33.475Z,19.69
2018-10-11T10:30:33.442Z,19.76
2018-10-11T10:31:33.457Z,19.82
2018-10-11T10:32:33.418Z,19.79
2018-10-11T10:33:33.406Z,19.88
2018-10-11T10:34:33.401Z,19.89
2018-10-11T10:35:33.409Z,19.91
2018-10-11T10:36:33.410Z,19.84
2018-10-11T10:37:33.365Z,19.91
2018-10-11T10:38:33.358Z,19.99
2018-10-11T10:39:33.346Z,20.03
2018-10-11T10:40:33.337Z,20.02
2018-10-11T10:41:33.349Z,20.00
2018-10-11T10:42:33.349Z,20.09
2018-10-11T10:43:33.302Z,20.13
2018-10-11T10:44:33.294Z,20.11
2018-10-11T10:45:33.287Z,20.16
2018-10-11T10:46:33.270Z,20.31
2018-10-11T10:47:33.332Z,20.26
2018-10-11T10:48:33.249Z,20.25
2018-10-11T10:49:33.241Z,20.39
2018-10-11T10:50:33.229Z,20.40
2018-10-11T10:51:33.220Z,20.44
2018-10-11T10:52:33.242Z,20.40
2018-10-11T10:53:33.222Z,20.51
2018-10-11T10:54:33.186Z,20.47
2018-10-11T10:55:33.176Z,20.48
2018-10-11T10:56:33.166Z,20.51
2018-10-11T10:57:33.164Z,20.55
2018-10-11T10:58:33.173Z,20.59
2018-10-11T10:59:33.157Z,20.63
2018-10-11T11:00:33.122Z,20.70
2018-10-11T11:01:33.115Z,20.72
2018-10-11T11:02:33.101Z,20.66
2018-10-11T11:03:33.121Z,20.87
2018-10-11T11:04:33.081Z,21.21
2018-10-11T11:05:33.095Z,21.72
2018-10-11T11:06:33.066Z,22.41
2018-10-11T11:07:33.049Z,23.06
2018-10-11T11:08:33.074Z,23.84
2018-10-11T11:09:33.035Z,24.35
2018-10-11T11:10:33.020Z,24.76
2018-10-11T11:11:33.035Z,24.98
2018-10-11T11:12:32.998Z,25.44
2018-10-11T11:13:32.989Z,25.80
2018-10-11T11:14:33.005Z,26.25
2018-10-11T11:15:32.968Z,26.59
2018-10-11T11:16:32.954Z,26.95
2018-10-11T11:17:32.968Z,27.00
2018-10-11T11:18:32.933Z,27.10
2018-10-11T11:19:32.954Z,27.21
2018-10-11T11:20:32.912Z,27.26
2018-10-11T11:21:32.903Z,27.27
2018-10-11T11:22:32.891Z,27.49
2018-10-11T11:23:32.904Z,27.44
2018-10-11T11:24:32.903Z,27.42
2018-10-11T11:25:32.865Z,27.33
2018-10-11T11:26:32.852Z,27.12
2018-10-11T11:27:32.841Z,27.26
2018-10-11T11:28:32.832Z,27.71
2018-10-11T11:29:32.862Z,27.90
2018-10-11T11:30:32.839Z,28.07
2018-10-11T11:31:32.798Z,28.20
2018-10-11T11:32:32.791Z,28.54
2018-10-11T11:33:32.779Z,28.74
2018-10-11T11:34:32.768Z,29.02
2018-10-11T11:35:32.818Z,29.39
2018-10-11T11:36:32.750Z,29.54
2018-10-11T11:37:32.739Z,29.49
2018-10-11T11:38:32.729Z,29.66
2018-10-11T11:39:32.716Z,30.03
2018-10-11T11:40:32.746Z,30.35
2018-10-11T11:41:32.713Z,30.47
2018-10-11T11:42:32.686Z,30.62
2018-10-11T11:43:32.675Z,30.50
2018-10-11T11:44:32.664Z,30.43
2018-10-11T11:45:32.654Z,30.50
2018-10-11T11:46:32.672Z,30.55
2018-10-11T11:47:32.669Z,30.73
2018-10-11T11:48:32.619Z,30.94
2018-10-11T11:49:32.609Z,31.02
2018-10-11T11:50:32.626Z,31.02
2018-10-11T11:51:32.626Z,31.20
2018-10-11T11:52:32.581Z,31.37
2018-10-11T11:53:32.606Z,31.54
2018-10-11T11:54:32.556Z,31.61
2018-10-11T11:55:32.547Z,31.62
2018-10-11T11:56:32.568Z,31.64
2018-10-11T11:57:32.529Z,31.92
2018-10-11T11:58:32.517Z,32.23
2018-10-11T11:59:32.535Z,32.40
2018-10-11T12:00:32.493Z,32.40
2018-10-11T12:01:32.486Z,32.41
2018-10-11T12:02:32.543Z,32.55
2018-10-11T12:03:32.464Z,32.78
2018-10-11T12:04:32.451Z,32.93
2018-10-11T12:05:32.525Z,32.96
2018-10-11T12:06:32.435Z,33.19
2018-10-11T12:07:32.482Z,33.28
2018-10-11T12:08:32.412Z,33.22
2018-10-11T12:09:32.401Z,33.17
2018-10-11T12:10:32.493Z,33.14
2018-10-11T12:11:32.377Z,32.97
2018-10-11T12:12:32.743Z,33.09
2018-10-11T12:13:32.364Z,33.27
2018-10-11T12:14:32.346Z,33.61
2018-10-11T12:15:32.337Z,33.76
2018-10-11T12:16:32.336Z,33.79
2018-10-11T12:17:32.317Z,33.92
2018-10-11T12:18:32.376Z,33.99
2018-10-11T12:19:32.452Z,33.96
2018-10-11T12:20:32.339Z,34.02
2018-10-11T12:21:32.285Z,34.03
2018-10-11T12:22:32.303Z,34.06
2018-10-11T12:23:32.350Z,34.17
2018-10-11T12:24:32.244Z,34.17
2018-10-11T12:25:32.238Z,34.24
2018-10-11T12:26:32.253Z,34.27
2018-10-11T12:27:32.227Z,34.21
2018-10-11T12:28:32.299Z,34.21
2018-10-11T12:29:32.245Z,34.01
2018-10-11T12:30:32.179Z,33.99
2018-10-11T12:31:32.175Z,34.11
2018-10-11T12:32:32.161Z,34.10
2018-10-11T12:33:32.317Z,34.08
2018-10-11T12:34:32.176Z,34.16
2018-10-11T12:35:32.131Z,34.13
2018-10-11T12:36:32.127Z,33.99
2018-10-11T12:37:32.198Z,33.92
2018-10-11T12:38:32.132Z,33.98
2018-10-11T12:39:32.920Z,33.89
2018-10-11T12:40:32.082Z,33.81
2018-10-11T12:41:32.066Z,33.79
2018-10-11T12:42:32.159Z,33.83
2018-10-11T12:43:32.051Z,33.79
2018-10-11T12:44:32.070Z,33.53
2018-10-11T12:45:32.058Z,33.34
2018-10-11T12:46:33.585Z,33.15
2018-10-11T12:47:32.009Z,32.96
2018-10-11T12:48:32.267Z,32.68
2018-10-11T12:49:32.220Z,32.40
2018-10-11T12:50:31.985Z,32.01
2018-10-11T12:51:32.006Z,31.96
2018-10-11T12:52:31.965Z,32.12